sensor_id;sensor_type;location;lat;lon;timestamp;temperature;humidity
69628;DHT22;56850;51.984;5.088;2022-08-21T12:41:34;29.00;41.60
69628;DHT22;56850;51.984;5.088;2022-08-21T12:44:12;29.20;41.90
69628;DHT22;56850;51.984;5.088;2022-08-21T12:46:47;29.50;41.50
69628;DHT22;56850;51.984;5.088;2022-08-21T12:52:09;29.80;40.20
69628;DHT22;56850;51.984;5.088;2022-08-21T12:54:41;29.80;39.80
69628;DHT22;56850;51.984;5.088;2022-08-21T12:57:09;29.90;39.50
69628;DHT22;56850;51.984;5.088;2022-08-21T12:59:44;30.00;39.40
69628;DHT22;56850;51.984;5.088;2022-08-21T13:02:18;30.10;39.40
69628;DHT22;56850;51.984;5.088;2022-08-21T13:04:47;30.20;39.40
69628;DHT22;56850;51.984;5.088;2022-08-21T13:07:29;30.30;39.30
69628;DHT22;56850;51.984;5.088;2022-08-21T13:10:14;30.30;39.10
69628;DHT22;56850;51.984;5.088;2022-08-21T13:12:43;30.30;38.90
69628;DHT22;56850;51.984;5.088;2022-08-21T13:15:12;30.40;38.60
69628;DHT22;56850;51.984;5.088;2022-08-21T13:17:47;30.50;38.20
69628;DHT22;56850;51.984;5.088;2022-08-21T13:20:23;30.50;37.80
69628;DHT22;56850;51.984;5.088;2022-08-21T13:22:51;30.40;37.80
69628;DHT22;56850;51.984;5.088;2022-08-21T13:25:20;30.50;37.60
69628;DHT22;56850;51.984;5.088;2022-08-21T13:30:28;30.60;37.90
69628;DHT22;56850;51.984;5.088;2022-08-21T13:33:05;30.70;38.10
69628;DHT22;56850;51.984;5.088;2022-08-21T13:38:33;30.90;37.60
69628;DHT22;56850;51.984;5.088;2022-08-21T13:41:08;30.90;37.10
69628;DHT22;56850;51.984;5.088;2022-08-21T13:43:38;30.90;36.90
69628;DHT22;56850;51.984;5.088;2022-08-21T13:46:12;30.80;37.00
69628;DHT22;56850;51.984;5.088;2022-08-21T13:48:40;30.80;37.50
69628;DHT22;56850;51.984;5.088;2022-08-21T13:51:08;30.80;37.50
69628;DHT22;56850;51.984;5.088;2022-08-21T13:53:45;30.80;37.10
69628;DHT22;56850;51.984;5.088;2022-08-21T13:56:25;30.90;37.10
69628;DHT22;56850;51.984;5.088;2022-08-21T13:58:54;31.00;37.00
69628;DHT22;56850;51.984;5.088;2022-08-21T14:01:48;31.00;37.00
69628;DHT22;56850;51.984;5.088;2022-08-21T14:04:22;31.00;36.90
69628;DHT22;56850;51.984;5.088;2022-08-21T14:06:50;30.80;37.10
69628;DHT22;56850;51.984;5.088;2022-08-21T14:09:40;30.50;37.50
69628;DHT22;56850;51.984;5.088;2022-08-21T14:12:17;30.50;37.50
69628;DHT22;56850;51.984;5.088;2022-08-21T14:14:50;30.30;36.90
69628;DHT22;56850;51.984;5.088;2022-08-21T14:17:32;30.10;37.10
69628;DHT22;56850;51.984;5.088;2022-08-21T14:19:59;29.90;37.10
69628;DHT22;56850;51.984;5.088;2022-08-21T14:22:42;29.70;37.70
69628;DHT22;56850;51.984;5.088;2022-08-21T14:28:09;29.30;39.10
69628;DHT22;56850;51.984;5.088;2022-08-21T14:30:44;29.10;39.50
69628;DHT22;56850;51.984;5.088;2022-08-21T14:33:21;28.90;39.70
69628;DHT22;56850;51.984;5.088;2022-08-21T14:35:50;28.70;40.20
69628;DHT22;56850;51.984;5.088;2022-08-21T14:38:20;28.60;40.50
69628;DHT22;56850;51.984;5.088;2022-08-21T14:40:52;28.50;40.70
69628;DHT22;56850;51.984;5.088;2022-08-21T14:43:20;28.40;41.00
69628;DHT22;56850;51.984;5.088;2022-08-21T14:45:47;28.40;41.20
69628;DHT22;56850;51.984;5.088;2022-08-21T14:48:14;28.20;41.10
69628;DHT22;56850;51.984;5.088;2022-08-21T14:50:41;28.10;41.30
69628;DHT22;56850;51.984;5.088;2022-08-21T14:53:08;28.10;41.30
69628;DHT22;56850;51.984;5.088;2022-08-21T14:55:37;28.10;41.50
69628;DHT22;56850;51.984;5.088;2022-08-21T14:58:24;28.10;41.50
69628;DHT22;56850;51.984;5.088;2022-08-21T15:00:52;28.10;41.60
69628;DHT22;56850;51.984;5.088;2022-08-21T15:03:21;28.00;41.70
69628;DHT22;56850;51.984;5.088;2022-08-21T15:05:51;28.00;41.80
69628;DHT22;56850;51.984;5.088;2022-08-21T15:08:18;27.80;41.90
69628;DHT22;56850;51.984;5.088;2022-08-21T15:10:45;27.60;42.30
69628;DHT22;56850;51.984;5.088;2022-08-21T15:13:33;27.50;42.70
69628;DHT22;56850;51.984;5.088;2022-08-21T15:16:00;27.40;42.80
69628;DHT22;56850;51.984;5.088;2022-08-21T15:18:29;27.40;42.80
69628;DHT22;56850;51.984;5.088;2022-08-21T15:20:57;27.40;43.00
69628;DHT22;56850;51.984;5.088;2022-08-21T15:23:24;27.50;42.90
69628;DHT22;56850;51.984;5.088;2022-08-21T15:25:52;27.50;42.50
69628;DHT22;56850;51.984;5.088;2022-08-21T15:28:20;27.40;42.50
69628;DHT22;56850;51.984;5.088;2022-08-21T15:30:48;27.50;42.20
69628;DHT22;56850;51.984;5.088;2022-08-21T15:33:15;27.40;42.10
69628;DHT22;56850;51.984;5.088;2022-08-21T15:35:43;27.40;42.20
69628;DHT22;56850;51.984;5.088;2022-08-21T15:38:12;27.60;41.60
69628;DHT22;56850;51.984;5.088;2022-08-21T15:40:40;27.80;40.90
69628;DHT22;56850;51.984;5.088;2022-08-21T15:43:30;27.90;40.50
69628;DHT22;56850;51.984;5.088;2022-08-21T15:46:00;27.90;40.00
69628;DHT22;56850;51.984;5.088;2022-08-21T15:48:28;27.90;39.90
69628;DHT22;56850;51.984;5.088;2022-08-21T15:50:55;27.90;40.00
69628;DHT22;56850;51.984;5.088;2022-08-21T15:53:22;27.90;40.00
69628;DHT22;56850;51.984;5.088;2022-08-21T15:55:49;27.80;40.40
69628;DHT22;56850;51.984;5.088;2022-08-21T15:58:17;27.80;40.80
69628;DHT22;56850;51.984;5.088;2022-08-21T16:00:47;27.90;41.10
69628;DHT22;56850;51.984;5.088;2022-08-21T16:03:16;27.90;41.20
69628;DHT22;56850;51.984;5.088;2022-08-21T16:05:44;28.00;41.20
69628;DHT22;56850;51.984;5.088;2022-08-21T16:08:12;28.00;41.20
69628;DHT22;56850;51.984;5.088;2022-08-21T16:10:39;28.00;41.10
69628;DHT22;56850;51.984;5.088;2022-08-21T16:13:11;28.00;41.00
69628;DHT22;56850;51.984;5.088;2022-08-21T16:15:39;27.90;40.90
69628;DHT22;56850;51.984;5.088;2022-08-21T16:18:09;27.80;40.90
69628;DHT22;56850;51.984;5.088;2022-08-21T16:20:36;27.80;40.70
69628;DHT22;56850;51.984;5.088;2022-08-21T16:23:03;27.70;40.70
69628;DHT22;56850;51.984;5.088;2022-08-21T16:25:30;27.60;40.70
69628;DHT22;56850;51.984;5.088;2022-08-21T16:28:01;27.70;40.30
69628;DHT22;56850;51.984;5.088;2022-08-21T16:30:30;27.70;40.20
69628;DHT22;56850;51.984;5.088;2022-08-21T16:32:59;27.60;40.40
69628;DHT22;56850;51.984;5.088;2022-08-21T16:35:27;27.60;40.80
69628;DHT22;56850;51.984;5.088;2022-08-21T16:37:54;27.50;40.90
69628;DHT22;56850;51.984;5.088;2022-08-21T16:40:21;27.50;40.60
69628;DHT22;56850;51.984;5.088;2022-08-21T16:42:53;27.40;40.60
69628;DHT22;56850;51.984;5.088;2022-08-21T16:45:21;27.30;41.10
69628;DHT22;56850;51.984;5.088;2022-08-21T16:47:48;27.20;41.70
69628;DHT22;56850;51.984;5.088;2022-08-21T16:50:20;27.10;42.00
69628;DHT22;56850;51.984;5.088;2022-08-21T16:52:49;27.10;42.30
69628;DHT22;56850;51.984;5.088;2022-08-21T16:55:16;27.10;42.70
69628;DHT22;56850;51.984;5.088;2022-08-21T16:57:43;27.10;43.30
69628;DHT22;56850;51.984;5.088;2022-08-21T17:00:11;27.10;43.70
69628;DHT22;56850;51.984;5.088;2022-08-21T17:02:48;26.90;44.20
69628;DHT22;56850;51.984;5.088;2022-08-21T17:05:16;26.90;44.40
69628;DHT22;56850;51.984;5.088;2022-08-21T17:07:43;26.70;44.70
69628;DHT22;56850;51.984;5.088;2022-08-21T17:10:13;26.50;45.20
69628;DHT22;56850;51.984;5.088;2022-08-21T17:12:42;26.50;45.40
69628;DHT22;56850;51.984;5.088;2022-08-21T17:15:16;26.50;45.70
69628;DHT22;56850;51.984;5.088;2022-08-21T17:17:48;26.50;45.80
69628;DHT22;56850;51.984;5.088;2022-08-21T17:20:16;26.50;45.90
69628;DHT22;56850;51.984;5.088;2022-08-21T17:22:43;26.50;46.20
69628;DHT22;56850;51.984;5.088;2022-08-21T17:25:10;26.40;46.40
69628;DHT22;56850;51.984;5.088;2022-08-21T17:27:39;26.40;46.60
69628;DHT22;56850;51.984;5.088;2022-08-21T17:30:06;26.40;46.70
69628;DHT22;56850;51.984;5.088;2022-08-21T17:32:33;26.40;46.80
69628;DHT22;56850;51.984;5.088;2022-08-21T17:35:00;26.40;46.70
69628;DHT22;56850;51.984;5.088;2022-08-21T17:37:29;26.30;46.60
69628;DHT22;56850;51.984;5.088;2022-08-21T17:39:56;26.30;46.80
69628;DHT22;56850;51.984;5.088;2022-08-21T17:42:23;26.20;46.90
69628;DHT22;56850;51.984;5.088;2022-08-21T17:44:51;26.20;47.00
69628;DHT22;56850;51.984;5.088;2022-08-21T17:47:18;26.10;47.00
69628;DHT22;56850;51.984;5.088;2022-08-21T17:49:45;26.20;47.00
69628;DHT22;56850;51.984;5.088;2022-08-21T17:52:12;26.20;47.00
69628;DHT22;56850;51.984;5.088;2022-08-21T17:54:39;26.10;46.90
69628;DHT22;56850;51.984;5.088;2022-08-21T17:57:09;26.00;47.10
69628;DHT22;56850;51.984;5.088;2022-08-21T17:59:38;26.00;47.20
69628;DHT22;56850;51.984;5.088;2022-08-21T18:02:05;26.10;47.10
69628;DHT22;56850;51.984;5.088;2022-08-21T18:04:45;26.00;47.20
69628;DHT22;56850;51.984;5.088;2022-08-21T18:07:19;25.90;47.40
69628;DHT22;56850;51.984;5.088;2022-08-21T18:09:59;25.90;47.60
69628;DHT22;56850;51.984;5.088;2022-08-21T18:12:27;25.80;47.90
69628;DHT22;56850;51.984;5.088;2022-08-21T18:14:54;25.70;48.10
69628;DHT22;56850;51.984;5.088;2022-08-21T18:17:22;25.70;48.40
69628;DHT22;56850;51.984;5.088;2022-08-21T18:19:50;25.70;48.60
69628;DHT22;56850;51.984;5.088;2022-08-21T18:22:17;25.70;48.80
69628;DHT22;56850;51.984;5.088;2022-08-21T18:24:44;25.70;48.90
69628;DHT22;56850;51.984;5.088;2022-08-21T18:27:12;25.70;49.10
69628;DHT22;56850;51.984;5.088;2022-08-21T18:29:42;25.70;49.20
69628;DHT22;56850;51.984;5.088;2022-08-21T18:32:15;25.70;49.40
69628;DHT22;56850;51.984;5.088;2022-08-21T18:35:02;25.60;49.50
69628;DHT22;56850;51.984;5.088;2022-08-21T18:37:29;25.60;49.70
69628;DHT22;56850;51.984;5.088;2022-08-21T18:39:57;25.60;49.80
69628;DHT22;56850;51.984;5.088;2022-08-21T18:42:25;25.50;49.90
69628;DHT22;56850;51.984;5.088;2022-08-21T18:45:00;25.40;50.10
69628;DHT22;56850;51.984;5.088;2022-08-21T18:47:31;25.30;50.40
69628;DHT22;56850;51.984;5.088;2022-08-21T18:50:01;25.30;50.50
69628;DHT22;56850;51.984;5.088;2022-08-21T18:52:28;25.30;50.60
69628;DHT22;56850;51.984;5.088;2022-08-21T18:54:55;25.20;50.70
69628;DHT22;56850;51.984;5.088;2022-08-21T18:57:24;25.20;50.60
69628;DHT22;56850;51.984;5.088;2022-08-21T18:59:53;25.20;50.70
69628;DHT22;56850;51.984;5.088;2022-08-21T19:02:21;25.20;50.70
69628;DHT22;56850;51.984;5.088;2022-08-21T19:04:49;25.20;50.80
69628;DHT22;56850;51.984;5.088;2022-08-21T19:07:17;25.20;50.80
69628;DHT22;56850;51.984;5.088;2022-08-21T19:09:46;25.20;50.90
69628;DHT22;56850;51.984;5.088;2022-08-21T19:12:33;25.20;50.90
69628;DHT22;56850;51.984;5.088;2022-08-21T19:15:02;25.20;50.90
69628;DHT22;56850;51.984;5.088;2022-08-21T19:17:30;25.10;50.90
69628;DHT22;56850;51.984;5.088;2022-08-21T19:20:00;25.10;51.10
69628;DHT22;56850;51.984;5.088;2022-08-21T19:22:29;25.00;51.20
69628;DHT22;56850;51.984;5.088;2022-08-21T19:24:56;25.00;51.20
69628;DHT22;56850;51.984;5.088;2022-08-21T19:27:23;25.00;51.30
69628;DHT22;56850;51.984;5.088;2022-08-21T19:29:51;24.90;51.30
69628;DHT22;56850;51.984;5.088;2022-08-21T19:32:18;24.90;51.60
69628;DHT22;56850;51.984;5.088;2022-08-21T19:34:47;24.80;51.80
69628;DHT22;56850;51.984;5.088;2022-08-21T19:37:16;24.80;51.90
69628;DHT22;56850;51.984;5.088;2022-08-21T19:39:45;24.70;52.00
69628;DHT22;56850;51.984;5.088;2022-08-21T19:42:16;24.80;52.10
69628;DHT22;56850;51.984;5.088;2022-08-21T19:44:47;24.80;52.00
69628;DHT22;56850;51.984;5.088;2022-08-21T19:47:19;24.80;52.00
69628;DHT22;56850;51.984;5.088;2022-08-21T19:49:58;24.80;51.90
69628;DHT22;56850;51.984;5.088;2022-08-21T19:52:29;24.70;51.90
69628;DHT22;56850;51.984;5.088;2022-08-21T19:55:02;24.70;52.00
69628;DHT22;56850;51.984;5.088;2022-08-21T19:57:31;24.70;52.00
69628;DHT22;56850;51.984;5.088;2022-08-21T19:59:59;24.70;52.10
69628;DHT22;56850;51.984;5.088;2022-08-21T20:02:33;24.60;52.20
69628;DHT22;56850;51.984;5.088;2022-08-21T20:05:02;24.60;52.30
69628;DHT22;56850;51.984;5.088;2022-08-21T20:07:29;24.50;52.30
69628;DHT22;56850;51.984;5.088;2022-08-21T20:09:57;24.50;52.60
69628;DHT22;56850;51.984;5.088;2022-08-21T20:12:25;24.50;52.80
69628;DHT22;56850;51.984;5.088;2022-08-21T20:14:52;24.50;52.90
69628;DHT22;56850;51.984;5.088;2022-08-21T20:17:19;24.50;52.90
69628;DHT22;56850;51.984;5.088;2022-08-21T20:19:47;24.50;52.90
69628;DHT22;56850;51.984;5.088;2022-08-21T20:22:20;24.50;52.90
69628;DHT22;56850;51.984;5.088;2022-08-21T20:24:49;24.50;52.90
69628;DHT22;56850;51.984;5.088;2022-08-21T20:27:25;24.60;52.90
69628;DHT22;56850;51.984;5.088;2022-08-21T20:29:53;24.60;53.10
69628;DHT22;56850;51.984;5.088;2022-08-21T20:32:21;24.60;53.20
69628;DHT22;56850;51.984;5.088;2022-08-21T20:34:49;24.50;53.20
69628;DHT22;56850;51.984;5.088;2022-08-21T20:37:18;24.60;53.30
69628;DHT22;56850;51.984;5.088;2022-08-21T20:40:07;24.50;53.30
69628;DHT22;56850;51.984;5.088;2022-08-21T20:42:39;24.50;53.40
69628;DHT22;56850;51.984;5.088;2022-08-21T20:45:10;24.50;53.50
69628;DHT22;56850;51.984;5.088;2022-08-21T20:47:37;24.50;53.50
69628;DHT22;56850;51.984;5.088;2022-08-21T20:50:06;24.50;53.60
69628;DHT22;56850;51.984;5.088;2022-08-21T20:53:01;24.40;53.70
69628;DHT22;56850;51.984;5.088;2022-08-21T20:55:31;24.40;53.80
69628;DHT22;56850;51.984;5.088;2022-08-21T20:58:07;24.50;53.90
69628;DHT22;56850;51.984;5.088;2022-08-21T21:00:41;24.50;54.00
69628;DHT22;56850;51.984;5.088;2022-08-21T21:03:23;24.50;54.00
69628;DHT22;56850;51.984;5.088;2022-08-21T21:06:23;24.50;54.00
69628;DHT22;56850;51.984;5.088;2022-08-21T21:08:54;24.50;54.10
69628;DHT22;56850;51.984;5.088;2022-08-21T21:14:14;24.50;54.20
69628;DHT22;56850;51.984;5.088;2022-08-21T21:17:03;24.50;54.20
69628;DHT22;56850;51.984;5.088;2022-08-21T21:19:45;24.50;54.30
69628;DHT22;56850;51.984;5.088;2022-08-21T21:22:19;24.50;54.40
69628;DHT22;56850;51.984;5.088;2022-08-21T21:25:07;24.50;54.40
69628;DHT22;56850;51.984;5.088;2022-08-21T21:27:40;24.50;54.60
69628;DHT22;56850;51.984;5.088;2022-08-21T21:32:55;24.40;54.70
69628;DHT22;56850;51.984;5.088;2022-08-21T21:35:28;24.40;54.70
69628;DHT22;56850;51.984;5.088;2022-08-21T21:38:17;24.40;54.70
69628;DHT22;56850;51.984;5.088;2022-08-21T21:44:06;24.30;54.40
69628;DHT22;56850;51.984;5.088;2022-08-21T21:46:47;24.30;54.40
69628;DHT22;56850;51.984;5.088;2022-08-21T21:49:35;24.30;54.40
69628;DHT22;56850;51.984;5.088;2022-08-21T21:58:45;24.10;54.60
69628;DHT22;56850;51.984;5.088;2022-08-21T22:04:18;24.10;54.70
69628;DHT22;56850;51.984;5.088;2022-08-21T22:07:08;24.10;54.70
69628;DHT22;56850;51.984;5.088;2022-08-21T22:10:09;24.10;54.70
69628;DHT22;56850;51.984;5.088;2022-08-21T22:15:53;24.10;54.70
69628;DHT22;56850;51.984;5.088;2022-08-21T22:18:27;24.00;54.60
69628;DHT22;56850;51.984;5.088;2022-08-21T22:23:37;24.00;54.90
69628;DHT22;56850;51.984;5.088;2022-08-21T22:26:11;23.90;55.00
69628;DHT22;56850;51.984;5.088;2022-08-21T22:28:40;23.90;55.00
69628;DHT22;56850;51.984;5.088;2022-08-21T22:31:28;23.90;55.00
69628;DHT22;56850;51.984;5.088;2022-08-21T22:34:14;23.90;55.00
69628;DHT22;56850;51.984;5.088;2022-08-21T22:37:09;23.90;55.10
69628;DHT22;56850;51.984;5.088;2022-08-21T22:39:41;23.90;55.00
69628;DHT22;56850;51.984;5.088;2022-08-21T22:42:19;23.90;55.00
69628;DHT22;56850;51.984;5.088;2022-08-21T22:44:49;23.90;55.10
69628;DHT22;56850;51.984;5.088;2022-08-21T22:47:29;23.90;55.10
69628;DHT22;56850;51.984;5.088;2022-08-21T22:50:03;23.90;55.10
69628;DHT22;56850;51.984;5.088;2022-08-21T22:52:34;23.90;55.00
69628;DHT22;56850;51.984;5.088;2022-08-21T22:55:41;23.90;54.90
69628;DHT22;56850;51.984;5.088;2022-08-21T22:58:28;23.80;54.80
69628;DHT22;56850;51.984;5.088;2022-08-21T23:03:52;23.70;54.80
69628;DHT22;56850;51.984;5.088;2022-08-21T23:06:34;23.70;54.80
69628;DHT22;56850;51.984;5.088;2022-08-21T23:09:18;23.70;54.90
69628;DHT22;56850;51.984;5.088;2022-08-21T23:11:47;23.60;54.90
69628;DHT22;56850;51.984;5.088;2022-08-21T23:14:17;23.60;54.90
69628;DHT22;56850;51.984;5.088;2022-08-21T23:17:14;23.50;55.00
69628;DHT22;56850;51.984;5.088;2022-08-21T23:25:47;23.40;55.40
69628;DHT22;56850;51.984;5.088;2022-08-21T23:28:28;23.30;55.50
69628;DHT22;56850;51.984;5.088;2022-08-21T23:31:15;23.30;55.70
69628;DHT22;56850;51.984;5.088;2022-08-21T23:36:43;23.20;56.00
69628;DHT22;56850;51.984;5.088;2022-08-21T23:39:52;23.20;56.00
69628;DHT22;56850;51.984;5.088;2022-08-21T23:48:22;23.10;56.30
69628;DHT22;56850;51.984;5.088;2022-08-21T23:51:10;23.10;56.30
69628;DHT22;56850;51.984;5.088;2022-08-21T23:53:56;23.10;56.40
69628;DHT22;56850;51.984;5.088;2022-08-21T23:57:13;23.00;56.40
